Terminal Aerodrome Forecast
Issued by NWS Quad Cities IA IL

Home | Current Version | Previous Version | Text Only | Print | Product List | Glossary On
Versions: 1 2 3 4 5 6 7 8 9 10 11 12 13 14 15 16 17 18 19 20 21 22 23 24 25 26 27
000
FTUS43 KDVN 301738
TAFMLI
TAF
KMLI 301738Z 3018/0118 06016KT 5SM -DZ BR OVC008
     FM301930 07016G23KT 4SM SHRA BR OVC006
     FM302200 08018G27KT 5SM BR OVC007
      TEMPO 0100/0104 4SM TSRA BR OVC005CB
     FM010500 16012KT 5SM -DZ BR OVC012
     FM011100 20010KT 5SM BR OVC015=

USA.gov is the U.S. government's official web portal to all federal, state and local government web resources and services.